Time;durP1;ratioP1;P1;durP2;ratioP2;P2;SDS_P1;SDS_P2;PMS_P1;PMS_P2;Temp;Humidity;BMP_temperature;BMP_pressure;BME280_temperature;BME280_humidity;BME280_pressure;Samples;Min_cycle;Max_cycle;Signal;HPM_P1;HPM_P2
2022/04/24 00:01:33;;;;;;;0.73;0.73;;;;;;;;;;5069491;28;20020;-70
2022/04/24 00:03:58;;;;;;;0.55;0.55;;;;;;;;;;5069360;28;20484;-69
2022/04/24 00:06:24;;;;;;;0.40;0.40;;;;;;;;;;5069654;28;20021;-67
2022/04/24 00:08:52;;;;;;;0.35;0.35;;;;;;;;;;5069154;28;20471;-69
2022/04/24 00:11:18;;;;;;;0.28;0.28;;;;;;;;;;5068228;28;20099;-69
2022/04/24 00:13:43;;;;;;;0.38;0.38;;;;;;;;;;5049955;28;20115;-70
2022/04/24 00:16:08;;;;;;;0.00;0.00;;;;;;;;;;5068874;28;20033;-66
2022/04/24 00:18:34;;;;;;;0.15;0.15;;;;;;;;;;5069192;28;20017;-68
2022/04/24 00:21:00;;;;;;;0.70;0.65;;;;;;;;;;5069732;28;20115;-68
2022/04/24 00:23:25;;;;;;;0.22;0.22;;;;;;;;;;5069355;28;20099;-68
2022/04/24 00:25:50;;;;;;;0.65;0.65;;;;;;;;;;5068493;28;20410;-66
2022/04/24 00:28:16;;;;;;;0.90;0.90;;;;;;;;;;5066989;28;20178;-67
2022/04/24 00:30:41;;;;;;;2.63;2.28;;;;;;;;;;5069787;28;20123;-65
2022/04/24 00:33:06;;;;;;;0.10;0.10;;;;;;;;;;5070293;28;20032;-66
2022/04/24 00:35:31;;;;;;;0.63;0.63;;;;;;;;;;5069892;28;20032;-65
2022/04/24 00:37:57;;;;;;;1.27;1.17;;;;;;;;;;5070066;28;20028;-65
2022/04/24 00:40:22;;;;;;;0.03;0.03;;;;;;;;;;5069693;28;20103;-66
2022/04/24 00:42:48;;;;;;;2.08;1.77;;;;;;;;;;5067180;28;20098;-65
2022/04/24 00:45:13;;;;;;;0.03;0.03;;;;;;;;;;5068553;28;20081;-64
2022/04/24 00:47:41;;;;;;;0.57;0.57;;;;;;;;;;5067971;28;20052;-65
2022/04/24 00:50:07;;;;;;;0.08;0.08;;;;;;;;;;5069346;28;20028;-65
2022/04/24 00:52:32;;;;;;;0.65;0.65;;;;;;;;;;5069165;28;20036;-65
2022/04/24 00:54:58;;;;;;;0.00;0.00;;;;;;;;;;5070595;28;20028;-65
2022/04/24 00:57:23;;;;;;;1.38;1.27;;;;;;;;;;5069277;28;20457;-65
2022/04/24 00:59:48;;;;;;;1.05;1.05;;;;;;;;;;5072340;28;20452;-65
2022/04/24 01:02:13;;;;;;;0.95;0.50;;;;;;;;;;5069159;28;20013;-65
2022/04/24 01:04:39;;;;;;;0.47;0.30;;;;;;;;;;5070787;28;20047;-66
2022/04/24 01:07:04;;;;;;;0.32;0.32;;;;;;;;;;5069677;28;20028;-67
2022/04/24 01:09:31;;;;;;;0.00;0.00;;;;;;;;;;5069491;28;20021;-66
2022/04/24 01:11:57;;;;;;;0.00;0.00;;;;;;;;;;5069932;28;20016;-66
2022/04/24 01:14:25;;;;;;;1.20;1.10;;;;;;;;;;5068636;28;20885;-67
2022/04/24 01:16:50;;;;;;;0.65;0.65;;;;;;;;;;5067739;28;20029;-66
2022/04/24 01:19:16;;;;;;;0.00;0.00;;;;;;;;;;5069284;28;20070;-67
2022/04/24 01:21:42;;;;;;;0.00;0.00;;;;;;;;;;5069354;28;20027;-66
2022/04/24 01:24:08;;;;;;;0.00;0.00;;;;;;;;;;5068292;28;20050;-66
2022/04/24 01:26:33;;;;;;;0.00;0.00;;;;;;;;;;5069520;28;20036;-65
2022/04/24 01:28:58;;;;;;;0.65;0.10;;;;;;;;;;5069799;28;20036;-65
2022/04/24 01:31:24;;;;;;;0.63;0.63;;;;;;;;;;5068888;28;20063;-65
2022/04/24 01:33:49;;;;;;;0.00;0.00;;;;;;;;;;5069228;28;20394;-65
2022/04/24 01:36:14;;;;;;;0.00;0.00;;;;;;;;;;5068989;28;20042;-65
2022/04/24 01:38:40;;;;;;;0.63;0.63;;;;;;;;;;5069091;28;20099;-65
2022/04/24 01:41:06;;;;;;;0.08;0.08;;;;;;;;;;5069485;28;20024;-62
2022/04/24 01:43:31;;;;;;;0.90;0.90;;;;;;;;;;5069206;28;20036;-63
2022/04/24 01:45:56;;;;;;;1.02;1.02;;;;;;;;;;5069150;28;20039;-64
2022/04/24 01:48:22;;;;;;;0.00;0.00;;;;;;;;;;5068724;28;20025;-63
2022/04/24 01:50:47;;;;;;;0.00;0.00;;;;;;;;;;5069394;28;20377;-64
2022/04/24 01:53:12;;;;;;;0.00;0.00;;;;;;;;;;5067749;28;20028;-63
2022/04/24 01:55:38;;;;;;;0.00;0.00;;;;;;;;;;5068927;28;20036;-63
2022/04/24 01:58:03;;;;;;;0.00;0.00;;;;;;;;;;5068691;28;20032;-64
2022/04/24 02:00:30;;;;;;;0.00;0.00;;;;;;;;;;5068800;28;20027;-63
2022/04/24 02:02:55;;;;;;;0.00;0.00;;;;;;;;;;5068005;28;20024;-64
2022/04/24 02:05:20;;;;;;;0.00;0.00;;;;;;;;;;5068615;28;20036;-63
2022/04/24 02:07:45;;;;;;;0.52;0.52;;;;;;;;;;5068808;28;20024;-64
2022/04/24 02:10:11;;;;;;;0.52;0.20;;;;;;;;;;5068470;28;20028;-64
2022/04/24 02:12:40;;;;;;;0.73;0.73;;;;;;;;;;5067388;28;20029;-64
2022/04/24 02:15:05;;;;;;;0.00;0.00;;;;;;;;;;5068497;28;21338;-64
2022/04/24 02:17:31;;;;;;;0.00;0.00;;;;;;;;;;5066377;28;20029;-65
2022/04/24 02:19:56;;;;;;;1.33;0.35;;;;;;;;;;5068553;28;20430;-66
2022/04/24 02:22:21;;;;;;;0.30;0.30;;;;;;;;;;5046191;28;20031;-64
2022/04/24 02:24:46;;;;;;;0.22;0.22;;;;;;;;;;5067124;28;20020;-65
2022/04/24 02:27:11;;;;;;;0.60;0.60;;;;;;;;;;5065556;28;20055;-64
2022/04/24 02:29:37;;;;;;;0.80;0.60;;;;;;;;;;5067421;28;20022;-65
2022/04/24 02:32:02;;;;;;;0.15;0.15;;;;;;;;;;5068367;28;20036;-64
2022/04/24 02:34:27;;;;;;;0.15;0.15;;;;;;;;;;5068031;28;20083;-64
2022/04/24 02:36:53;;;;;;;1.25;1.23;;;;;;;;;;5068464;28;20033;-64
2022/04/24 02:39:18;;;;;;;0.30;0.28;;;;;;;;;;5067950;28;20397;-68
2022/04/24 02:41:43;;;;;;;1.60;1.50;;;;;;;;;;5068380;28;20077;-67
2022/04/24 02:44:08;;;;;;;0.00;0.00;;;;;;;;;;5068394;28;20095;-66
2022/04/24 02:46:34;;;;;;;0.00;0.00;;;;;;;;;;5068286;28;20450;-66
2022/04/24 02:48:59;;;;;;;0.70;0.70;;;;;;;;;;5068065;28;20544;-65
2022/04/24 02:51:24;;;;;;;0.00;0.00;;;;;;;;;;5066953;28;20037;-65
2022/04/24 02:53:49;;;;;;;0.00;0.00;;;;;;;;;;5069085;28;20020;-66
2022/04/24 02:56:14;;;;;;;0.00;0.00;;;;;;;;;;5067801;28;20504;-65
2022/04/24 02:58:40;;;;;;;0.20;0.20;;;;;;;;;;5068761;28;20020;-65
2022/04/24 03:01:05;;;;;;;0.00;0.00;;;;;;;;;;5068239;28;20024;-65
2022/04/24 03:03:30;;;;;;;0.10;0.10;;;;;;;;;;5068057;28;20030;-65
2022/04/24 03:05:55;;;;;;;0.40;0.40;;;;;;;;;;5068336;28;20109;-66
2022/04/24 03:08:21;;;;;;;0.00;0.00;;;;;;;;;;5067872;28;20024;-65
2022/04/24 03:10:46;;;;;;;0.17;0.17;;;;;;;;;;5068145;28;20024;-65
2022/04/24 03:13:11;;;;;;;1.02;1.02;;;;;;;;;;5069377;28;20043;-65
2022/04/24 03:15:37;;;;;;;0.43;0.43;;;;;;;;;;5067716;28;20453;-65
2022/04/24 03:18:04;;;;;;;0.00;0.00;;;;;;;;;;5067976;28;20044;-65
2022/04/24 03:20:29;;;;;;;0.00;0.00;;;;;;;;;;5066785;28;20027;-64
2022/04/24 03:22:54;;;;;;;0.00;0.00;;;;;;;;;;5068132;28;20016;-66
2022/04/24 03:25:20;;;;;;;0.00;0.00;;;;;;;;;;5067700;28;20469;-67
2022/04/24 03:27:45;;;;;;;0.00;0.00;;;;;;;;;;5068281;28;20053;-68
2022/04/24 03:30:10;;;;;;;0.00;0.00;;;;;;;;;;5071890;28;20032;-68
2022/04/24 03:32:36;;;;;;;0.00;0.00;;;;;;;;;;5070849;28;20031;-68
2022/04/24 03:35:03;;;;;;;0.30;0.30;;;;;;;;;;5071774;28;20044;-69
2022/04/24 03:37:28;;;;;;;0.00;0.00;;;;;;;;;;5071123;28;20063;-70
2022/04/24 03:39:53;;;;;;;0.00;0.00;;;;;;;;;;5070264;28;20430;-68
2022/04/24 03:42:19;;;;;;;0.00;0.00;;;;;;;;;;5071121;28;20021;-68
2022/04/24 03:44:44;;;;;;;0.28;0.28;;;;;;;;;;5071758;28;20093;-68
2022/04/24 03:47:09;;;;;;;0.00;0.00;;;;;;;;;;5070931;28;20033;-67
2022/04/24 03:49:35;;;;;;;0.35;0.35;;;;;;;;;;5070466;28;20035;-65
2022/04/24 03:52:00;;;;;;;0.05;0.05;;;;;;;;;;5071636;28;20040;-63
2022/04/24 03:54:25;;;;;;;0.10;0.10;;;;;;;;;;5055834;28;20025;-66
2022/04/24 03:56:50;;;;;;;0.03;0.03;;;;;;;;;;5071440;28;20036;-64
2022/04/24 03:59:15;;;;;;;0.00;0.00;;;;;;;;;;5071087;28;20024;-66
2022/04/24 04:01:41;;;;;;;0.00;0.00;;;;;;;;;;5071494;28;21603;-67
2022/04/24 04:04:06;;;;;;;0.00;0.00;;;;;;;;;;5071078;28;20025;-67
2022/04/24 04:06:31;;;;;;;0.10;0.10;;;;;;;;;;5070858;28;20036;-67
2022/04/24 04:08:56;;;;;;;0.00;0.00;;;;;;;;;;5070942;28;20035;-69
2022/04/24 04:11:22;;;;;;;0.08;0.08;;;;;;;;;;5070546;28;20035;-69
2022/04/24 04:13:47;;;;;;;0.00;0.00;;;;;;;;;;5071193;28;20031;-68
2022/04/24 04:16:12;;;;;;;0.08;0.08;;;;;;;;;;5070268;28;20079;-69
2022/04/24 04:18:38;;;;;;;0.75;0.75;;;;;;;;;;5070255;28;20012;-68
2022/04/24 04:21:03;;;;;;;2.88;2.67;;;;;;;;;;5071079;28;20029;-69
2022/04/24 04:23:28;;;;;;;0.43;0.43;;;;;;;;;;5070153;28;20111;-69
2022/04/24 04:25:53;;;;;;;0.60;0.60;;;;;;;;;;5071002;28;20078;-68
2022/04/24 04:28:18;;;;;;;0.95;0.95;;;;;;;;;;5070359;28;20545;-69
2022/04/24 04:30:44;;;;;;;0.82;0.82;;;;;;;;;;5070610;28;20680;-68
2022/04/24 04:33:09;;;;;;;0.20;0.20;;;;;;;;;;5070471;28;20029;-69
2022/04/24 04:35:35;;;;;;;0.73;0.73;;;;;;;;;;5069887;28;20029;-67
2022/04/24 04:38:00;;;;;;;1.52;1.42;;;;;;;;;;5070341;28;20024;-66
2022/04/24 04:40:26;;;;;;;6.03;1.85;;;;;;;;;;5069979;28;20021;-66
2022/04/24 04:42:51;;;;;;;0.00;0.00;;;;;;;;;;5070380;28;20107;-70
2022/04/24 04:45:17;;;;;;;0.00;0.00;;;;;;;;;;5069387;28;20026;-69
2022/04/24 04:47:42;;;;;;;0.00;0.00;;;;;;;;;;5070021;28;20059;-68
2022/04/24 04:50:08;;;;;;;0.00;0.00;;;;;;;;;;5070505;28;20056;-67
2022/04/24 04:52:34;;;;;;;0.22;0.08;;;;;;;;;;5069999;28;20071;-66
2022/04/24 04:55:00;;;;;;;0.00;0.00;;;;;;;;;;5070608;28;20024;-65
2022/04/24 04:57:25;;;;;;;0.00;0.00;;;;;;;;;;5069825;28;20029;-69
2022/04/24 04:59:51;;;;;;;0.00;0.00;;;;;;;;;;5071309;28;20095;-68
2022/04/24 05:02:16;;;;;;;0.00;0.00;;;;;;;;;;5071014;28;20025;-68
2022/04/24 05:04:43;;;;;;;0.00;0.00;;;;;;;;;;5070374;28;20012;-66
2022/04/24 05:07:09;;;;;;;0.00;0.00;;;;;;;;;;5068662;28;20032;-67
2022/04/24 05:09:34;;;;;;;0.00;0.00;;;;;;;;;;5069394;28;20032;-66
2022/04/24 05:11:59;;;;;;;0.00;0.00;;;;;;;;;;5070265;28;20750;-67
2022/04/24 05:14:25;;;;;;;0.00;0.00;;;;;;;;;;5068333;28;20028;-67
2022/04/24 05:16:50;;;;;;;0.00;0.00;;;;;;;;;;5070364;28;20031;-67
2022/04/24 05:19:15;;;;;;;0.00;0.00;;;;;;;;;;5069681;28;20029;-68
2022/04/24 05:21:40;;;;;;;0.00;0.00;;;;;;;;;;5069615;28;20024;-65
2022/04/24 05:24:06;;;;;;;0.00;0.00;;;;;;;;;;5068534;28;20428;-65
2022/04/24 05:26:31;;;;;;;0.00;0.00;;;;;;;;;;5068597;28;20608;-66
2022/04/24 05:28:56;;;;;;;0.00;0.00;;;;;;;;;;5069186;28;20029;-65
2022/04/24 05:31:22;;;;;;;0.00;0.00;;;;;;;;;;5068342;28;20039;-65
2022/04/24 05:33:47;;;;;;;0.15;0.15;;;;;;;;;;5068644;28;20016;-65
2022/04/24 05:36:12;;;;;;;0.00;0.00;;;;;;;;;;5069087;28;20078;-65
2022/04/24 05:38:37;;;;;;;0.00;0.00;;;;;;;;;;5068332;28;20119;-65
2022/04/24 05:41:03;;;;;;;0.00;0.00;;;;;;;;;;5068666;28;20425;-65
2022/04/24 05:43:28;;;;;;;0.00;0.00;;;;;;;;;;5067975;28;20020;-65
2022/04/24 05:45:53;;;;;;;0.13;0.13;;;;;;;;;;5069383;28;20103;-65
2022/04/24 05:48:19;;;;;;;0.10;0.10;;;;;;;;;;5067818;28;20024;-64
2022/04/24 05:50:44;;;;;;;0.00;0.00;;;;;;;;;;5068996;28;20063;-65
2022/04/24 05:53:09;;;;;;;0.00;0.00;;;;;;;;;;5068308;28;20032;-65
2022/04/24 05:55:35;;;;;;;0.30;0.30;;;;;;;;;;5068091;28;20457;-64
2022/04/24 05:58:00;;;;;;;0.00;0.00;;;;;;;;;;5068805;28;20020;-63
2022/04/24 06:00:26;;;;;;;0.00;0.00;;;;;;;;;;5067801;28;20016;-63
2022/04/24 06:02:51;;;;;;;0.47;0.47;;;;;;;;;;5069283;28;20362;-64
2022/04/24 06:05:17;;;;;;;0.70;0.70;;;;;;;;;;5068059;28;20038;-62
2022/04/24 06:07:42;;;;;;;0.35;0.35;;;;;;;;;;5066701;28;20465;-63
2022/04/24 06:10:08;;;;;;;0.00;0.00;;;;;;;;;;5068434;28;20525;-67
2022/04/24 06:12:43;;;;;;;0.00;0.00;;;;;;;;;;5067094;28;20020;-63
2022/04/24 06:15:13;;;;;;;0.00;0.00;;;;;;;;;;5068036;28;20008;-65
2022/04/24 06:17:38;;;;;;;0.22;0.22;;;;;;;;;;5068413;28;20021;-69
2022/04/24 06:20:04;;;;;;;0.00;0.00;;;;;;;;;;5068242;28;20097;-63
2022/04/24 06:22:29;;;;;;;0.00;0.00;;;;;;;;;;5067995;28;20081;-64
2022/04/24 06:24:54;;;;;;;0.00;0.00;;;;;;;;;;5068401;28;20134;-67
2022/04/24 06:27:20;;;;;;;0.00;0.00;;;;;;;;;;5067202;28;20048;-67
2022/04/24 06:29:46;;;;;;;1.00;0.45;;;;;;;;;;5068305;28;20055;-67
2022/04/24 06:32:11;;;;;;;0.65;0.65;;;;;;;;;;5067031;28;20028;-65
2022/04/24 06:34:36;;;;;;;0.22;0.22;;;;;;;;;;5066503;28;20330;-64
2022/04/24 06:37:07;;;;;;;0.98;0.98;;;;;;;;;;5067414;28;20024;-63
2022/04/24 06:39:34;;;;;;;0.90;0.90;;;;;;;;;;5066170;28;20107;-65
2022/04/24 06:42:02;;;;;;;0.00;0.00;;;;;;;;;;5067106;28;20347;-64
2022/04/24 06:44:27;;;;;;;0.40;0.40;;;;;;;;;;5066383;28;20012;-64
2022/04/24 06:46:52;;;;;;;1.98;1.90;;;;;;;;;;5066856;28;20093;-64
2022/04/24 06:49:17;;;;;;;1.85;1.77;;;;;;;;;;5066889;28;20016;-64
2022/04/24 06:51:42;;;;;;;4.00;3.70;;;;;;;;;;5067170;28;20381;-64
2022/04/24 06:54:08;;;;;;;2.05;1.75;;;;;;;;;;5067485;28;20469;-64
2022/04/24 06:56:33;;;;;;;1.63;1.52;;;;;;;;;;5066925;28;20043;-63
2022/04/24 06:58:58;;;;;;;4.05;3.63;;;;;;;;;;5068151;28;20028;-65
2022/04/24 07:01:25;;;;;;;2.53;2.33;;;;;;;;;;5066934;28;20110;-68
2022/04/24 07:03:50;;;;;;;1.88;1.77;;;;;;;;;;5069228;28;20165;-65
2022/04/24 07:06:16;;;;;;;0.00;0.00;;;;;;;;;;5071881;28;20107;-66
2022/04/24 07:08:41;;;;;;;2.13;0.65;;;;;;;;;;5070790;28;20105;-66
2022/04/24 07:11:06;;;;;;;5.38;4.68;;;;;;;;;;5072193;28;20059;-67
2022/04/24 07:13:31;;;;;;;1.60;1.50;;;;;;;;;;5071244;28;20021;-66
2022/04/24 07:15:57;;;;;;;5.03;3.53;;;;;;;;;;5073087;28;20021;-63
2022/04/24 07:18:22;;;;;;;3.72;3.33;;;;;;;;;;5071101;28;20021;-66
2022/04/24 07:20:47;;;;;;;6.35;3.30;;;;;;;;;;5071677;28;20090;-66
2022/04/24 07:23:12;;;;;;;2.70;2.38;;;;;;;;;;5070030;28;20039;-67
2022/04/24 07:25:40;;;;;;;2.28;1.33;;;;;;;;;;5070756;28;20028;-67
2022/04/24 07:28:06;;;;;;;2.97;2.70;;;;;;;;;;5071471;28;20051;-67
2022/04/24 07:30:31;;;;;;;4.68;4.28;;;;;;;;;;5070836;28;20103;-67
2022/04/24 07:32:57;;;;;;;5.15;3.92;;;;;;;;;;5071128;28;20361;-67
2022/04/24 07:35:23;;;;;;;4.40;3.88;;;;;;;;;;5070782;28;20028;-67
2022/04/24 07:37:49;;;;;;;5.03;4.57;;;;;;;;;;5070586;28;20016;-67
2022/04/24 07:40:15;;;;;;;3.30;3.05;;;;;;;;;;5072028;28;20013;-66
2022/04/24 07:42:43;;;;;;;6.45;4.15;;;;;;;;;;5070412;28;20028;-66
2022/04/24 07:45:08;;;;;;;5.05;2.67;;;;;;;;;;5070543;28;20055;-67
2022/04/24 07:47:33;;;;;;;2.97;2.55;;;;;;;;;;5070314;28;20044;-68
2022/04/24 07:49:59;;;;;;;3.90;3.55;;;;;;;;;;5069485;28;20795;-68
2022/04/24 07:52:24;;;;;;;2.20;1.20;;;;;;;;;;5070867;28;20017;-67
2022/04/24 07:54:51;;;;;;;1.30;1.30;;;;;;;;;;5070931;28;20108;-67
2022/04/24 07:57:16;;;;;;;3.20;0.95;;;;;;;;;;5070749;28;20033;-68
2022/04/24 07:59:42;;;;;;;0.43;0.43;;;;;;;;;;5070425;28;20021;-68
2022/04/24 08:02:07;;;;;;;1.38;1.27;;;;;;;;;;5071132;28;20025;-69
2022/04/24 08:04:32;;;;;;;0.43;0.43;;;;;;;;;;5069974;28;20023;-68
2022/04/24 08:06:58;;;;;;;0.80;0.43;;;;;;;;;;5070139;28;20366;-68
2022/04/24 08:09:23;;;;;;;2.63;2.13;;;;;;;;;;5069825;28;20040;-68
2022/04/24 08:11:48;;;;;;;0.90;0.90;;;;;;;;;;5070339;28;20029;-68
2022/04/24 08:14:14;;;;;;;3.05;2.83;;;;;;;;;;5070142;28;20081;-67
2022/04/24 08:16:39;;;;;;;1.70;1.60;;;;;;;;;;5070271;28;20173;-68
2022/04/24 08:19:04;;;;;;;1.38;1.27;;;;;;;;;;5069908;28;20112;-68
2022/04/24 08:21:30;;;;;;;0.00;0.00;;;;;;;;;;5070087;28;20024;-68
2022/04/24 08:23:55;;;;;;;1.35;1.35;;;;;;;;;;5070405;28;20028;-67
2022/04/24 08:26:20;;;;;;;2.05;1.95;;;;;;;;;;5069491;28;20024;-67
2022/04/24 08:28:45;;;;;;;0.00;0.00;;;;;;;;;;5070462;28;20028;-68
2022/04/24 08:31:11;;;;;;;2.53;2.33;;;;;;;;;;5070600;28;20040;-69
2022/04/24 08:33:36;;;;;;;1.05;0.85;;;;;;;;;;5069208;28;20024;-68
2022/04/24 08:36:01;;;;;;;2.45;2.28;;;;;;;;;;5069231;28;20025;-68
2022/04/24 08:38:26;;;;;;;2.60;0.52;;;;;;;;;;5069355;28;20020;-68
2022/04/24 08:40:52;;;;;;;2.65;2.55;;;;;;;;;;5070231;28;20025;-68
2022/04/24 08:43:18;;;;;;;5.38;3.65;;;;;;;;;;5070251;28;20031;-67
2022/04/24 08:45:45;;;;;;;4.50;1.83;;;;;;;;;;5070151;28;20480;-68
2022/04/24 08:48:10;;;;;;;0.75;0.47;;;;;;;;;;5070514;28;20024;-62
2022/04/24 08:50:36;;;;;;;2.45;2.35;;;;;;;;;;5069713;28;20376;-63
2022/04/24 08:53:02;;;;;;;2.60;2.40;;;;;;;;;;5070362;28;20410;-62
2022/04/24 08:55:28;;;;;;;3.92;3.20;;;;;;;;;;5070130;28;20109;-62
2022/04/24 08:57:54;;;;;;;2.13;2.03;;;;;;;;;;5071087;28;20488;-62
2022/04/24 09:00:20;;;;;;;3.50;3.22;;;;;;;;;;5070158;28;20017;-63
2022/04/24 09:02:45;;;;;;;4.00;2.25;;;;;;;;;;5070345;28;20082;-62
2022/04/24 09:05:11;;;;;;;1.95;1.23;;;;;;;;;;5068835;28;20465;-62
2022/04/24 09:07:38;;;;;;;2.55;2.35;;;;;;;;;;5069614;28;20009;-63
2022/04/24 09:10:09;;;;;;;5.53;3.95;;;;;;;;;;5069694;28;20027;-62
2022/04/24 09:12:34;;;;;;;3.30;3.10;;;;;;;;;;5067839;28;20462;-63
2022/04/24 09:15:00;;;;;;;1.50;1.30;;;;;;;;;;5069541;28;20032;-63
2022/04/24 09:17:26;;;;;;;3.25;3.05;;;;;;;;;;5069305;28;20024;-62
2022/04/24 09:19:52;;;;;;;1.75;1.65;;;;;;;;;;5069687;28;20020;-63
2022/04/24 09:22:17;;;;;;;2.10;1.63;;;;;;;;;;5069835;28;20346;-63
2022/04/24 09:24:48;;;;;;;2.78;2.53;;;;;;;;;;5067824;28;20458;-63
2022/04/24 09:27:27;;;;;;;2.03;2.00;;;;;;;;;;5068806;28;20047;-63
2022/04/24 09:29:55;;;;;;;1.10;1.10;;;;;;;;;;5069061;28;20107;-63
2022/04/24 09:32:21;;;;;;;3.05;2.60;;;;;;;;;;5068476;28;20033;-63
2022/04/24 09:34:47;;;;;;;0.93;0.93;;;;;;;;;;5068201;28;20107;-63
2022/04/24 09:37:15;;;;;;;1.52;1.42;;;;;;;;;;5069308;28;20108;-63
2022/04/24 09:39:40;;;;;;;4.05;3.75;;;;;;;;;;5069417;28;20039;-62
2022/04/24 09:42:10;;;;;;;1.27;1.27;;;;;;;;;;5069891;28;20465;-62
2022/04/24 09:44:46;;;;;;;3.05;2.85;;;;;;;;;;5066165;28;20032;-63
2022/04/24 09:47:12;;;;;;;1.45;1.35;;;;;;;;;;5067608;28;20035;-63
2022/04/24 09:49:37;;;;;;;4.80;3.10;;;;;;;;;;5065838;28;20016;-61
2022/04/24 09:52:03;;;;;;;1.23;1.23;;;;;;;;;;5069165;28;20048;-60
2022/04/24 09:54:29;;;;;;;3.78;3.40;;;;;;;;;;5068483;28;20016;-61
2022/04/24 09:56:56;;;;;;;0.57;0.57;;;;;;;;;;5068484;28;20373;-60
2022/04/24 09:59:22;;;;;;;3.28;2.80;;;;;;;;;;5065620;28;20016;-61
2022/04/24 10:01:47;;;;;;;5.75;5.15;;;;;;;;;;5066928;28;20070;-60
2022/04/24 10:04:13;;;;;;;3.10;2.80;;;;;;;;;;5068541;28;20024;-60
2022/04/24 10:06:40;;;;;;;1.85;1.75;;;;;;;;;;5065874;28;20025;-60
2022/04/24 10:09:07;;;;;;;3.80;3.45;;;;;;;;;;5066738;28;20073;-60
2022/04/24 10:11:33;;;;;;;2.83;2.42;;;;;;;;;;5067023;28;20020;-60
2022/04/24 10:14:01;;;;;;;0.70;0.70;;;;;;;;;;5060854;28;20016;-61
2022/04/24 10:16:37;;;;;;;1.10;1.10;;;;;;;;;;5066554;28;20478;-60
2022/04/24 10:19:21;;;;;;;5.60;3.13;;;;;;;;;;5064724;28;20037;-60
2022/04/24 10:22:05;;;;;;;2.83;2.63;;;;;;;;;;5067242;28;20056;-60
2022/04/24 10:24:43;;;;;;;8.25;3.47;;;;;;;;;;5064195;28;20078;-60
2022/04/24 10:27:11;;;;;;;1.35;1.35;;;;;;;;;;5067387;28;20084;-60
2022/04/24 10:29:47;;;;;;;2.75;1.08;;;;;;;;;;5066873;28;20099;-60
2022/04/24 10:32:25;;;;;;;7.70;2.42;;;;;;;;;;5065765;28;20136;-60
2022/04/24 10:34:50;;;;;;;0.25;0.25;;;;;;;;;;5068254;28;20024;-60
2022/04/24 10:37:24;;;;;;;4.38;3.08;;;;;;;;;;5068187;28;20038;-61
2022/04/24 10:39:54;;;;;;;0.50;0.22;;;;;;;;;;5066806;28;20492;-60
2022/04/24 10:42:28;;;;;;;0.80;0.80;;;;;;;;;;5061750;28;20052;-61
2022/04/24 10:44:57;;;;;;;0.00;0.00;;;;;;;;;;5067011;28;20453;-60
2022/04/24 10:47:22;;;;;;;3.95;3.65;;;;;;;;;;5068335;28;20039;-61
2022/04/24 10:49:47;;;;;;;3.03;2.83;;;;;;;;;;5047759;28;20032;-61
2022/04/24 10:52:13;;;;;;;4.07;2.53;;;;;;;;;;5066861;28;20021;-61
2022/04/24 10:54:39;;;;;;;0.93;0.93;;;;;;;;;;5066191;28;20021;-61
2022/04/24 10:57:17;;;;;;;0.60;0.60;;;;;;;;;;5066285;28;20111;-60
2022/04/24 10:59:44;;;;;;;1.50;1.40;;;;;;;;;;5066508;28;20440;-61
2022/04/24 11:02:09;;;;;;;4.60;4.30;;;;;;;;;;5067137;28;20346;-60
2022/04/24 11:04:38;;;;;;;2.55;2.35;;;;;;;;;;5068123;28;20104;-61
2022/04/24 11:07:05;;;;;;;4.05;2.88;;;;;;;;;;5066467;28;20028;-61
2022/04/24 11:09:31;;;;;;;4.55;3.63;;;;;;;;;;5068185;28;20500;-61
2022/04/24 11:11:58;;;;;;;1.55;1.50;;;;;;;;;;5069102;28;20028;-61
2022/04/24 11:14:25;;;;;;;1.17;1.17;;;;;;;;;;5066142;28;20589;-61
2022/04/24 11:16:51;;;;;;;3.08;2.47;;;;;;;;;;5066399;28;20241;-62
2022/04/24 11:19:27;;;;;;;3.28;3.08;;;;;;;;;;5066304;28;20016;-62
2022/04/24 11:22:08;;;;;;;4.63;4.20;;;;;;;;;;5067576;28;20511;-61
2022/04/24 11:24:36;;;;;;;0.73;0.73;;;;;;;;;;5046384;28;20020;-61
2022/04/24 11:27:03;;;;;;;2.88;2.67;;;;;;;;;;5067520;28;20460;-61
2022/04/24 11:29:28;;;;;;;3.83;3.47;;;;;;;;;;5065217;28;20016;-61
2022/04/24 11:31:55;;;;;;;5.97;4.35;;;;;;;;;;5066299;28;20135;-61
2022/04/24 11:34:21;;;;;;;5.22;4.72;;;;;;;;;;5063292;28;20086;-60
2022/04/24 11:36:47;;;;;;;14.10;4.93;;;;;;;;;;5064702;28;20481;-61
2022/04/24 11:39:13;;;;;;;5.30;4.68;;;;;;;;;;5067288;28;20109;-61
2022/04/24 11:41:39;;;;;;;4.90;4.00;;;;;;;;;;5067425;28;20016;-61
2022/04/24 11:52:16;;;;;;;2.85;2.65;;;;;;;;;;5068226;28;20050;-61
2022/04/24 11:54:42;;;;;;;3.08;2.85;;;;;;;;;;5070671;28;20024;-61
2022/04/24 11:57:09;;;;;;;3.67;3.40;;;;;;;;;;5069987;28;20032;-61
2022/04/24 11:59:35;;;;;;;3.30;3.20;;;;;;;;;;5049629;28;20020;-61
2022/04/24 12:02:00;;;;;;;2.30;2.20;;;;;;;;;;5071167;28;20370;-61
2022/04/24 12:04:28;;;;;;;1.73;1.55;;;;;;;;;;5068983;28;20026;-61
2022/04/24 12:06:59;;;;;;;3.38;3.08;;;;;;;;;;5071361;28;20036;-60
2022/04/24 12:09:24;;;;;;;1.80;1.75;;;;;;;;;;5070788;28;20108;-60
2022/04/24 12:11:49;;;;;;;4.00;3.72;;;;;;;;;;5069293;28;20441;-60
2022/04/24 12:14:16;;;;;;;2.22;2.13;;;;;;;;;;5070751;28;20028;-60
2022/04/24 12:16:51;;;;;;;2.72;2.00;;;;;;;;;;5068608;28;20031;-61
2022/04/24 12:19:17;;;;;;;3.30;2.80;;;;;;;;;;5070102;28;20071;-60
2022/04/24 12:21:48;;;;;;;2.45;2.25;;;;;;;;;;5069238;28;20032;-61
2022/04/24 12:24:14;;;;;;;3.22;2.75;;;;;;;;;;5070857;28;20016;-61
2022/04/24 12:26:49;;;;;;;5.07;4.50;;;;;;;;;;5069255;28;20032;-61
2022/04/24 12:29:17;;;;;;;4.60;3.88;;;;;;;;;;5069702;28;20031;-59
2022/04/24 12:31:43;;;;;;;5.25;4.35;;;;;;;;;;5069642;28;20081;-61
2022/04/24 12:34:08;;;;;;;3.53;2.75;;;;;;;;;;5067290;28;20032;-61
2022/04/24 12:36:33;;;;;;;5.72;5.20;;;;;;;;;;5069582;28;20040;-61
2022/04/24 12:38:59;;;;;;;2.20;2.10;;;;;;;;;;5067688;28;20016;-61
2022/04/24 12:41:28;;;;;;;3.72;3.42;;;;;;;;;;5070289;28;20028;-61
2022/04/24 12:43:57;;;;;;;6.18;5.43;;;;;;;;;;5068486;28;20016;-60
2022/04/24 12:46:23;;;;;;;3.93;3.20;;;;;;;;;;5049943;28;20032;-60
2022/04/24 12:48:55;;;;;;;4.68;4.25;;;;;;;;;;5069786;28;20259;-60
2022/04/24 12:51:21;;;;;;;2.47;2.38;;;;;;;;;;5067223;28;20404;-61
2022/04/24 12:53:48;;;;;;;4.05;3.67;;;;;;;;;;5071015;28;20028;-60
2022/04/24 12:56:13;;;;;;;4.97;3.55;;;;;;;;;;5069335;28;20032;-61
2022/04/24 12:58:39;;;;;;;3.75;3.53;;;;;;;;;;5069968;28;20020;-62
2022/04/24 13:01:05;;;;;;;2.38;2.17;;;;;;;;;;5068070;28;20021;-61
2022/04/24 13:03:31;;;;;;;2.40;2.30;;;;;;;;;;5068470;28;20070;-61
2022/04/24 13:05:56;;;;;;;3.40;3.20;;;;;;;;;;5069568;28;20020;-59
2022/04/24 13:08:21;;;;;;;4.63;4.22;;;;;;;;;;5069954;28;20016;-59
2022/04/24 13:10:46;;;;;;;2.90;2.70;;;;;;;;;;5070183;28;20028;-59
2022/04/24 13:13:13;;;;;;;5.10;1.17;;;;;;;;;;5067834;28;20024;-60
2022/04/24 13:15:38;;;;;;;5.43;4.78;;;;;;;;;;5068506;28;20024;-59
2022/04/24 13:18:07;;;;;;;4.00;3.70;;;;;;;;;;5070635;28;20381;-61
2022/04/24 13:20:33;;;;;;;3.45;3.25;;;;;;;;;;5067884;28;20473;-61
2022/04/24 13:22:58;;;;;;;3.63;3.00;;;;;;;;;;5069420;28;20032;-61
2022/04/24 13:25:24;;;;;;;2.72;2.42;;;;;;;;;;5065356;28;20031;-61
2022/04/24 13:27:49;;;;;;;6.65;4.88;;;;;;;;;;5070504;28;20051;-60
2022/04/24 13:30:14;;;;;;;4.03;3.50;;;;;;;;;;5070409;28;20462;-61
2022/04/24 13:32:39;;;;;;;2.83;2.08;;;;;;;;;;5070286;28;20029;-61
2022/04/24 13:35:05;;;;;;;1.00;1.00;;;;;;;;;;5069319;28;20032;-61
2022/04/24 13:40:14;;;;;;;5.93;3.00;;;;;;;;;;5068478;28;20026;-62
2022/04/24 13:42:40;;;;;;;4.97;3.95;;;;;;;;;;5064997;28;20107;-61
2022/04/24 13:45:05;;;;;;;3.38;3.08;;;;;;;;;;5068929;28;20101;-60
2022/04/24 13:47:30;;;;;;;2.15;2.00;;;;;;;;;;5070301;28;20100;-60
2022/04/24 13:49:55;;;;;;;4.20;3.85;;;;;;;;;;5063293;28;20095;-60
2022/04/24 13:52:21;;;;;;;5.03;4.63;;;;;;;;;;5067450;28;20114;-61
2022/04/24 13:54:46;;;;;;;2.50;1.98;;;;;;;;;;5064121;28;20028;-62
2022/04/24 13:57:11;;;;;;;1.88;1.77;;;;;;;;;;5067920;28;20103;-61
2022/04/24 13:59:42;;;;;;;3.25;2.90;;;;;;;;;;5047986;28;20515;-63
2022/04/24 14:02:07;;;;;;;3.33;2.92;;;;;;;;;;5068072;28;20016;-62
2022/04/24 14:04:33;;;;;;;5.28;4.55;;;;;;;;;;5065622;28;20028;-62
2022/04/24 14:06:58;;;;;;;5.28;4.80;;;;;;;;;;5052854;28;20027;-62
2022/04/24 14:09:23;;;;;;;5.80;4.10;;;;;;;;;;5066615;28;20025;-63
2022/04/24 14:11:48;;;;;;;1.48;0.65;;;;;;;;;;5066166;28;20028;-62
2022/04/24 14:14:14;;;;;;;4.00;3.47;;;;;;;;;;5066572;28;20111;-61
2022/04/24 14:16:39;;;;;;;7.78;6.30;;;;;;;;;;5066135;28;20024;-61
2022/04/24 14:19:04;;;;;;;4.13;3.47;;;;;;;;;;5067029;28;20103;-61
2022/04/24 14:21:29;;;;;;;6.43;4.85;;;;;;;;;;5066807;28;20029;-62
2022/04/24 14:23:55;;;;;;;4.68;4.28;;;;;;;;;;5067746;28;20020;-60
2022/04/24 14:26:20;;;;;;;5.35;4.85;;;;;;;;;;5068396;28;20037;-60
2022/04/24 14:28:45;;;;;;;5.88;5.18;;;;;;;;;;5068247;28;20042;-64
2022/04/24 14:31:10;;;;;;;6.90;3.58;;;;;;;;;;5068319;28;20159;-60
2022/04/24 14:33:39;;;;;;;7.78;6.97;;;;;;;;;;5067761;28;20063;-62
2022/04/24 14:36:04;;;;;;;2.63;2.45;;;;;;;;;;5067403;28;20051;-61
2022/04/24 14:38:30;;;;;;;5.95;5.38;;;;;;;;;;5067760;28;20020;-62
2022/04/24 14:40:56;;;;;;;5.65;4.65;;;;;;;;;;5066836;28;20021;-60
2022/04/24 14:43:21;;;;;;;10.18;5.78;;;;;;;;;;5067329;28;20036;-60
2022/04/24 14:56:45;;;;;;;2.80;2.67;;;;;;;;;;5063953;28;20067;-58
2022/04/24 14:59:11;;;;;;;7.07;2.75;;;;;;;;;;5050667;28;20048;-60